Time;durP1;ratioP1;P1;durP2;ratioP2;P2;SDS_P1;SDS_P2;PMS_P1;PMS_P2;Temp;Humidity;BMP_temperature;BMP_pressure;BME280_temperature;BME280_humidity;BME280_pressure;Samples;Min_cycle;Max_cycle;Signal;HPM_P1;HPM_P2
2022/09/06 00:01:45;;;;;;;0.00;0.00;;;20.30;99.90;226.50;231333.00;;;;5006086;28;20200;-74
2022/09/06 00:04:15;;;;;;;0.00;0.00;;;20.10;99.90;226.50;231333.00;;;;5005421;28;20200;-74
2022/09/06 00:06:45;;;;;;;0.00;0.00;;;20.10;99.90;226.50;231333.00;;;;5013421;28;20274;-75
2022/09/06 00:09:15;;;;;;;0.00;0.00;;;19.80;99.90;226.50;231333.00;;;;5013756;28;20226;-74
2022/09/06 00:11:45;;;;;;;0.00;0.00;;;19.80;99.90;226.50;231333.00;;;;5009110;28;20298;-75
2022/09/06 00:14:17;;;;;;;0.00;0.00;;;19.70;99.90;226.50;231333.00;;;;5012310;28;20681;-75
2022/09/06 00:16:47;;;;;;;0.00;0.00;;;19.70;99.90;226.50;231333.00;;;;5013514;28;20613;-74
2022/09/06 00:19:17;;;;;;;0.00;0.00;;;19.80;99.90;226.50;231333.00;;;;5008697;28;20211;-74
2022/09/06 00:21:47;;;;;;;0.00;0.00;;;19.90;99.90;226.50;231333.00;;;;5003548;28;20207;-74
2022/09/06 00:24:17;;;;;;;0.00;0.00;;;20.00;99.90;226.50;231333.00;;;;5014914;28;20184;-75
2022/09/06 00:26:47;;;;;;;0.00;0.00;;;20.00;99.90;226.50;231333.00;;;;5014676;28;20215;-75
2022/09/06 00:29:19;;;;;;;0.00;0.00;;;20.00;99.90;226.50;231333.00;;;;5014109;28;20230;-75
2022/09/06 00:31:49;;;;;;;0.00;0.00;;;20.00;99.90;226.50;231333.00;;;;5014301;28;20729;-75
2022/09/06 00:34:19;;;;;;;0.00;0.00;;;20.00;99.90;226.50;231333.00;;;;5014540;28;20196;-75
2022/09/06 00:36:49;;;;;;;0.00;0.00;;;19.90;99.90;226.50;231333.00;;;;5014066;28;20644;-74
2022/09/06 00:39:19;;;;;;;0.00;0.00;;;19.70;99.90;226.50;231333.00;;;;5014201;28;20204;-74
2022/09/06 00:41:49;;;;;;;0.00;0.00;;;19.60;99.90;226.50;231333.00;;;;5014391;28;20254;-74
2022/09/06 00:44:21;;;;;;;0.00;0.00;;;19.40;99.90;226.50;231333.00;;;;5014428;28;20275;-74
2022/09/06 00:46:54;;;;;;;0.00;0.00;;;19.40;99.90;226.50;231333.00;;;;5013787;28;20735;-74
2022/09/06 00:49:28;;;;;;;0.00;0.00;;;19.60;99.90;226.50;231333.00;;;;5013836;28;20237;-74
2022/09/06 00:52:04;;;;;;;0.00;0.00;;;19.60;99.90;226.50;231333.00;;;;5013583;28;20204;-74
2022/09/06 00:54:35;;;;;;;0.00;0.00;;;19.50;99.90;226.50;231333.00;;;;5014307;28;20206;-74
2022/09/06 00:57:05;;;;;;;0.00;0.00;;;19.40;99.90;226.50;231333.00;;;;5014078;28;20220;-75
2022/09/06 00:59:40;;;;;;;0.00;0.00;;;19.50;99.90;226.50;231333.00;;;;5013564;28;20196;-75
2022/09/06 01:02:11;;;;;;;0.00;0.00;;;19.50;99.90;226.50;231333.00;;;;5014027;28;20199;-75
2022/09/06 01:04:46;;;;;;;0.00;0.00;;;19.30;99.90;226.50;231333.00;;;;4998911;28;20619;-76
2022/09/06 01:07:44;;;;;;;0.00;0.00;;;19.10;99.90;226.50;231333.00;;;;5012063;28;20203;-75
2022/09/06 01:10:44;;;;;;;0.00;0.00;;;19.00;99.90;226.50;231333.00;;;;4996886;28;20200;-75
2022/09/06 01:13:34;;;;;;;0.00;0.00;;;18.80;99.90;226.50;231333.00;;;;5002727;28;20208;-74
2022/09/06 01:16:19;;;;;;;0.00;0.00;;;18.90;99.90;226.50;231333.00;;;;5013846;28;20231;-75
2022/09/06 01:19:30;;;;;;;0.00;0.00;;;18.80;99.90;226.50;231333.00;;;;5013462;28;20541;-75
2022/09/06 01:22:24;;;;;;;0.00;0.00;;;18.80;99.90;226.50;231333.00;;;;5013621;28;20196;-74
2022/09/06 01:25:17;;;;;;;0.00;0.00;;;18.90;99.90;226.50;231333.00;;;;5013825;28;20203;-75
2022/09/06 01:28:21;;;;;;;0.00;0.00;;;18.80;99.90;226.50;231333.00;;;;5012902;28;20196;-74
2022/09/06 01:31:09;;;;;;;0.00;0.00;;;18.80;99.90;226.50;231333.00;;;;5013399;28;20690;-75
2022/09/06 01:33:50;;;;;;;0.00;0.00;;;18.80;99.90;226.50;231333.00;;;;5013616;28;20195;-76
2022/09/06 01:36:27;;;;;;;0.00;0.00;;;18.80;99.90;226.50;231333.00;;;;5013284;28;20228;-75
2022/09/06 01:38:57;;;;;;;0.00;0.00;;;18.80;99.90;226.50;231333.00;;;;5016390;28;20203;-76
2022/09/06 01:41:28;;;;;;;0.00;0.00;;;18.80;99.90;226.50;231333.00;;;;5016127;28;20214;-74
2022/09/06 01:44:00;;;;;;;0.00;0.00;;;18.90;99.90;226.50;231333.00;;;;5015709;28;20219;-74
2022/09/06 01:46:43;;;;;;;0.00;0.00;;;19.00;99.90;226.50;231333.00;;;;5014706;28;20235;-74
2022/09/06 01:49:39;;;;;;;0.00;0.00;;;19.10;99.90;226.50;231333.00;;;;5014939;28;20220;-74
2022/09/06 01:52:18;;;;;;;0.00;0.00;;;18.90;99.90;226.50;231333.00;;;;5009782;28;20188;-74
2022/09/06 01:55:18;;;;;;;0.00;0.00;;;18.50;99.90;226.50;231333.00;;;;5004681;28;20642;-74
2022/09/06 01:58:15;;;;;;;0.00;0.00;;;18.40;99.90;226.50;231333.00;;;;5004934;28;20195;-74
2022/09/06 02:00:56;;;;;;;0.00;0.00;;;18.50;99.90;226.50;231333.00;;;;4994676;28;20836;-74
2022/09/06 02:03:37;;;;;;;0.00;0.00;;;18.50;99.90;226.50;231333.00;;;;5004869;28;20667;-74
2022/09/06 02:06:14;;;;;;;0.00;0.00;;;18.30;99.90;226.50;231333.00;;;;5012272;28;20612;-74
2022/09/06 02:08:50;;;;;;;0.00;0.00;;;18.40;99.90;226.50;231333.00;;;;5012272;28;20215;-73
2022/09/06 02:11:21;;;;;;;0.00;0.00;;;18.30;99.90;226.50;231333.00;;;;5012747;28;20192;-72
2022/09/06 02:13:58;;;;;;;0.00;0.00;;;18.20;99.90;226.50;231333.00;;;;5012989;28;20663;-73
2022/09/06 02:16:34;;;;;;;0.00;0.00;;;18.10;99.90;226.50;231333.00;;;;5012321;28;20226;-73
2022/09/06 02:19:12;;;;;;;0.00;0.00;;;18.10;99.90;226.50;231333.00;;;;5012412;28;20265;-72
2022/09/06 02:21:47;;;;;;;0.00;0.00;;;18.10;99.90;226.50;231333.00;;;;5002697;28;20204;-74
2022/09/06 02:24:25;;;;;;;0.00;0.00;;;18.00;99.90;226.50;231333.00;;;;4997603;28;20200;-74
2022/09/06 02:26:56;;;;;;;0.00;0.00;;;18.00;99.90;226.50;231333.00;;;;5006830;28;20215;-72
2022/09/06 02:29:27;;;;;;;0.00;0.00;;;18.00;99.90;226.50;231333.00;;;;4995578;28;20224;-73
2022/09/06 02:32:07;;;;;;;0.00;0.00;;;18.00;99.90;226.50;231333.00;;;;5007259;28;20215;-75
2022/09/06 02:34:42;;;;;;;0.00;0.00;;;18.00;99.90;226.50;231333.00;;;;5011811;28;20207;-74
2022/09/06 02:37:15;;;;;;;0.00;0.00;;;18.00;99.90;226.50;231333.00;;;;5008895;28;20203;-74
2022/09/06 02:39:46;;;;;;;0.00;0.00;;;18.10;99.90;226.50;231333.00;;;;5010456;28;20561;-74
2022/09/06 02:42:18;;;;;;;0.00;0.00;;;17.90;99.90;226.50;231333.00;;;;5012303;28;20251;-75
2022/09/06 02:44:49;;;;;;;0.00;0.00;;;17.90;99.90;226.50;231333.00;;;;5012264;28;20196;-75
2022/09/06 02:47:20;;;;;;;0.00;0.00;;;17.80;99.90;226.50;231333.00;;;;5008781;28;20187;-75
2022/09/06 02:49:50;;;;;;;0.00;0.00;;;17.80;99.90;226.50;231333.00;;;;4997380;28;20227;-73
2022/09/06 02:52:19;;;;;;;0.00;0.00;;;17.80;99.90;226.50;231333.00;;;;5011984;28;20203;-73
2022/09/06 02:54:49;;;;;;;0.00;0.00;;;17.70;99.90;226.50;231333.00;;;;4992507;28;20192;-75
2022/09/06 02:57:19;;;;;;;0.00;0.00;;;17.60;99.90;226.50;231333.00;;;;5011405;28;20203;-76
2022/09/06 02:59:50;;;;;;;0.00;0.00;;;17.60;99.90;226.50;231333.00;;;;4992428;28;20738;-76
2022/09/06 03:02:21;;;;;;;0.00;0.00;;;17.70;99.90;226.50;231333.00;;;;5000026;28;20286;-76
2022/09/06 03:04:50;;;;;;;0.00;0.00;;;17.70;99.90;226.50;231333.00;;;;5011732;28;20199;-76
2022/09/06 03:07:21;;;;;;;0.00;0.00;;;17.80;99.90;226.50;231333.00;;;;4994226;28;20251;-76
2022/09/06 03:09:51;;;;;;;0.00;0.00;;;17.90;99.90;226.50;231333.00;;;;5018088;28;20246;-76
2022/09/06 03:12:22;;;;;;;0.00;0.00;;;17.90;99.90;226.50;231333.00;;;;5027715;28;20222;-77
2022/09/06 03:14:52;;;;;;;0.00;0.00;;;17.90;99.90;226.50;231333.00;;;;4991937;28;20200;-77
2022/09/06 03:17:25;;;;;;;0.00;0.00;;;17.70;99.90;226.50;231333.00;;;;5007901;28;20199;-76
2022/09/06 03:19:56;;;;;;;0.00;0.00;;;17.70;99.90;226.50;231333.00;;;;4975424;28;20299;-77
2022/09/06 03:22:26;;;;;;;0.00;0.00;;;17.70;99.90;226.50;231333.00;;;;5007800;28;20199;-76
2022/09/06 03:24:57;;;;;;;0.00;0.00;;;17.60;99.90;226.50;231333.00;;;;5015642;28;20200;-76
2022/09/06 03:27:28;;;;;;;0.00;0.00;;;17.60;99.90;226.50;231333.00;;;;5008075;28;20204;-77
2022/09/06 03:29:58;;;;;;;0.00;0.00;;;17.70;99.90;226.50;231333.00;;;;4995669;28;20227;-77
2022/09/06 03:32:29;;;;;;;0.00;0.00;;;17.60;99.90;226.50;231333.00;;;;5001110;28;20204;-76
2022/09/06 03:34:59;;;;;;;0.00;0.00;;;17.50;99.90;226.50;231333.00;;;;5012903;28;20655;-75
2022/09/06 03:37:30;;;;;;;0.00;0.00;;;17.40;99.90;226.50;231333.00;;;;5008834;28;20671;-76
2022/09/06 03:40:00;;;;;;;0.00;0.00;;;17.30;99.90;226.50;231333.00;;;;4996235;28;20746;-76
2022/09/06 03:42:30;;;;;;;0.00;0.00;;;17.30;99.90;226.50;231333.00;;;;5007852;28;20192;-76
2022/09/06 03:45:00;;;;;;;0.00;0.00;;;17.20;99.90;226.50;231333.00;;;;4992085;28;20208;-76
2022/09/06 03:47:32;;;;;;;0.00;0.00;;;17.20;99.90;226.50;231333.00;;;;5010574;28;20279;-76
2022/09/06 03:50:02;;;;;;;0.00;0.00;;;17.20;99.90;226.50;231333.00;;;;5010894;28;20226;-76
2022/09/06 03:52:32;;;;;;;0.00;0.00;;;17.10;99.90;226.50;231333.00;;;;5011226;28;20211;-76
2022/09/06 03:55:02;;;;;;;0.00;0.00;;;16.90;99.90;226.50;231333.00;;;;4992000;28;20199;-76
2022/09/06 03:57:33;;;;;;;0.00;0.00;;;17.00;99.90;226.50;231333.00;;;;4990011;28;20196;-76
2022/09/06 04:00:04;;;;;;;0.00;0.00;;;17.00;99.90;226.50;231333.00;;;;5011081;28;20207;-76
2022/09/06 04:02:41;;;;;;;0.00;0.00;;;17.00;99.90;226.50;231333.00;;;;5008291;28;20200;-76
2022/09/06 04:05:12;;;;;;;0.00;0.00;;;16.90;99.90;226.50;231333.00;;;;5010850;28;20663;-76
2022/09/06 04:07:42;;;;;;;0.00;0.00;;;16.90;99.90;226.50;231333.00;;;;5000280;28;20207;-75
2022/09/06 04:10:13;;;;;;;0.00;0.00;;;16.80;99.90;226.50;231333.00;;;;4986670;28;20228;-77
2022/09/06 04:12:44;;;;;;;0.00;0.00;;;16.80;99.90;226.50;231333.00;;;;5011217;28;20211;-77
2022/09/06 04:15:14;;;;;;;0.00;0.00;;;16.80;99.90;226.50;231333.00;;;;5009663;28;20234;-77
2022/09/06 04:17:47;;;;;;;0.00;0.00;;;16.80;99.90;226.50;231333.00;;;;5007652;28;20214;-77
2022/09/06 04:20:18;;;;;;;0.00;0.00;;;16.80;99.90;226.50;231333.00;;;;4974311;28;20204;-74
2022/09/06 04:22:48;;;;;;;0.00;0.00;;;17.00;99.90;226.50;231333.00;;;;5008861;28;20549;-75
2022/09/06 04:25:18;;;;;;;0.00;0.00;;;16.90;99.90;226.50;231333.00;;;;5009693;28;20246;-75
2022/09/06 04:27:48;;;;;;;0.00;0.00;;;17.00;99.90;226.50;231333.00;;;;5012582;28;20743;-75
2022/09/06 04:30:19;;;;;;;0.00;0.00;;;17.00;99.90;226.50;231333.00;;;;5014581;28;20211;-75
2022/09/06 04:32:50;;;;;;;0.00;0.00;;;17.00;99.90;226.50;231333.00;;;;5015210;28;20543;-76
2022/09/06 04:35:20;;;;;;;0.00;0.00;;;16.90;99.90;226.50;231333.00;;;;5014257;28;20207;-75
2022/09/06 04:37:51;;;;;;;0.00;0.00;;;17.00;99.90;226.50;231333.00;;;;5008330;28;20277;-75
2022/09/06 04:40:22;;;;;;;0.00;0.00;;;17.00;99.90;226.50;231333.00;;;;5015539;28;20206;-75
2022/09/06 04:42:52;;;;;;;0.00;0.00;;;17.00;99.90;226.50;231333.00;;;;5012175;28;20210;-75
2022/09/06 04:45:23;;;;;;;0.00;0.00;;;17.20;99.90;226.50;231333.00;;;;5014425;28;20722;-76
2022/09/06 04:47:55;;;;;;;0.00;0.00;;;17.30;99.90;226.50;231333.00;;;;5012653;28;20200;-75
2022/09/06 04:50:25;;;;;;;0.00;0.00;;;17.30;99.90;226.50;231333.00;;;;5014697;28;20211;-75
2022/09/06 04:53:06;;;;;;;0.00;0.00;;;17.30;99.90;226.50;231333.00;;;;5015251;28;20286;-75
2022/09/06 04:55:37;;;;;;;0.00;0.00;;;17.30;99.90;226.50;231333.00;;;;5005952;28;20576;-76
2022/09/06 04:58:08;;;;;;;0.00;0.00;;;17.30;99.90;226.50;231333.00;;;;5004914;28;20188;-76
2022/09/06 05:00:38;;;;;;;0.00;0.00;;;17.30;99.90;226.50;231333.00;;;;5014476;28;20679;-75
2022/09/06 05:03:10;;;;;;;0.00;0.00;;;17.30;99.90;226.50;231333.00;;;;5014981;28;20192;-75
2022/09/06 05:05:39;;;;;;;0.00;0.00;;;17.20;99.90;226.50;231333.00;;;;5014962;28;20714;-75
2022/09/06 05:08:09;;;;;;;0.00;0.00;;;17.00;99.90;226.50;231333.00;;;;5014513;28;20195;-75
2022/09/06 05:10:39;;;;;;;0.00;0.00;;;17.00;99.90;226.50;231333.00;;;;5013975;28;20204;-75
2022/09/06 05:13:09;;;;;;;0.00;0.00;;;17.00;99.90;226.50;231333.00;;;;5012913;28;21417;-75
2022/09/06 05:15:38;;;;;;;0.00;0.00;;;17.00;99.90;226.50;231333.00;;;;5007985;28;21003;-75
2022/09/06 05:18:09;;;;;;;0.00;0.00;;;17.00;99.90;226.50;231333.00;;;;4995150;28;20239;-76
2022/09/06 05:20:50;;;;;;;0.00;0.00;;;17.00;99.90;226.50;231333.00;;;;4991901;28;20327;-76
2022/09/06 05:23:20;;;;;;;0.00;0.00;;;16.90;99.90;226.50;231333.00;;;;5009021;28;20192;-76
2022/09/06 05:25:50;;;;;;;0.00;0.00;;;17.00;99.90;226.50;231333.00;;;;5000220;28;20224;-76
2022/09/06 05:28:20;;;;;;;0.00;0.00;;;17.00;99.90;226.50;231333.00;;;;5001951;28;20196;-75
2022/09/06 05:30:50;;;;;;;0.00;0.00;;;17.00;99.90;226.50;231333.00;;;;5002322;28;20644;-76
2022/09/06 05:33:24;;;;;;;0.00;0.00;;;17.00;99.90;226.50;231333.00;;;;5013648;28;20198;-76
2022/09/06 05:35:54;;;;;;;0.00;0.00;;;16.90;99.90;226.50;231333.00;;;;5013227;28;20706;-76
2022/09/06 05:38:24;;;;;;;0.00;0.00;;;16.90;99.90;226.50;231333.00;;;;5011090;28;20215;-76
2022/09/06 05:40:58;;;;;;;0.00;0.00;;;17.00;99.90;226.50;231333.00;;;;5013624;28;20199;-75
2022/09/06 05:43:27;;;;;;;0.00;0.00;;;17.00;99.90;226.50;231333.00;;;;5012961;28;20678;-76
2022/09/06 05:45:57;;;;;;;0.00;0.00;;;17.10;99.90;226.50;231333.00;;;;5013146;28;20219;-75
2022/09/06 05:48:28;;;;;;;0.00;0.00;;;17.20;99.90;226.50;231333.00;;;;5025533;22;20194;-75
2022/09/06 05:51:08;;;;;;;0.00;0.00;;;17.20;99.90;226.50;231333.00;;;;4994114;28;20224;-74
2022/09/06 05:53:39;;;;;;;0.00;0.00;;;17.20;99.90;226.50;231333.00;;;;4994074;28;20184;-74
2022/09/06 05:56:10;;;;;;;0.00;0.00;;;17.30;99.90;226.50;231333.00;;;;4992725;28;20196;-74
2022/09/06 05:58:40;;;;;;;0.00;0.00;;;17.20;99.90;226.50;231333.00;;;;4989122;28;20213;-74
2022/09/06 06:01:18;;;;;;;0.00;0.00;;;17.20;99.90;226.50;231333.00;;;;4974654;28;20193;-74
2022/09/06 06:03:55;;;;;;;0.00;0.00;;;17.20;99.90;226.50;231333.00;;;;4959010;28;20297;-74
2022/09/06 06:06:27;;;;;;;0.00;0.00;;;17.20;99.90;226.50;231333.00;;;;4973610;28;20212;-74
2022/09/06 06:08:58;;;;;;;0.00;0.00;;;17.20;99.90;226.50;231333.00;;;;4974388;28;20208;-75
2022/09/06 06:11:29;;;;;;;0.00;0.00;;;17.30;99.90;226.50;231333.00;;;;4974163;28;20220;-74
2022/09/06 06:14:00;;;;;;;0.00;0.00;;;17.40;99.90;226.50;231333.00;;;;4977658;28;20211;-75
2022/09/06 06:16:30;;;;;;;0.00;0.00;;;17.40;99.90;226.50;231333.00;;;;4980116;28;20216;-74
2022/09/06 06:19:02;;;;;;;0.00;0.00;;;17.40;99.90;226.50;231333.00;;;;4982597;28;20221;-74
2022/09/06 06:21:34;;;;;;;0.00;0.00;;;17.40;99.90;226.50;231333.00;;;;4981743;28;20208;-75
2022/09/06 06:24:06;;;;;;;0.00;0.00;;;17.50;99.90;226.50;231333.00;;;;4974033;28;20201;-74
2022/09/06 06:26:38;;;;;;;0.00;0.00;;;17.50;99.90;226.50;231333.00;;;;4973623;28;20566;-74
2022/09/06 06:29:09;;;;;;;0.00;0.00;;;17.60;99.90;226.50;231333.00;;;;4973396;28;20217;-74
2022/09/06 06:31:40;;;;;;;0.00;0.00;;;17.60;99.90;226.50;231333.00;;;;4970998;28;20229;-74
2022/09/06 06:34:12;;;;;;;0.00;0.00;;;17.50;99.90;226.50;231333.00;;;;4967100;28;20205;-74
2022/09/06 06:36:43;;;;;;;0.00;0.00;;;17.60;99.90;226.50;231333.00;;;;4966534;28;20221;-75
2022/09/06 06:39:13;;;;;;;0.00;0.00;;;17.70;99.90;226.50;231333.00;;;;4954160;28;20228;-74
2022/09/06 06:41:44;;;;;;;0.00;0.00;;;17.70;99.90;226.50;231333.00;;;;4967578;28;20205;-74
2022/09/06 06:44:34;;;;;;;0.00;0.00;;;17.80;99.90;226.50;231333.00;;;;4973144;28;20582;-75
2022/09/06 06:47:05;;;;;;;0.00;0.00;;;17.90;99.90;226.50;231333.00;;;;4973412;28;20197;-75
2022/09/06 06:49:37;;;;;;;0.00;0.00;;;17.90;99.90;226.50;231333.00;;;;4972496;28;20223;-73
2022/09/06 06:52:07;;;;;;;0.00;0.00;;;17.90;99.90;226.50;231333.00;;;;4972153;28;20233;-74
2022/09/06 06:54:37;;;;;;;0.00;0.00;;;17.80;99.90;226.50;231333.00;;;;4973306;28;20203;-74
2022/09/06 06:57:08;;;;;;;0.00;0.00;;;17.90;99.90;226.50;231333.00;;;;4974869;28;20189;-74
2022/09/06 06:59:39;;;;;;;0.00;0.00;;;17.90;99.90;226.50;231333.00;;;;4974007;28;20706;-75
2022/09/06 07:02:10;;;;;;;0.00;0.00;;;18.00;99.90;226.50;231333.00;;;;4972863;28;20223;-74
2022/09/06 07:04:41;;;;;;;0.00;0.00;;;18.10;99.90;226.50;231333.00;;;;4973822;28;20204;-74
2022/09/06 07:07:12;;;;;;;0.00;0.00;;;18.20;99.90;226.50;231333.00;;;;4973325;28;20200;-74
2022/09/06 07:10:02;;;;;;;0.00;0.00;;;18.30;99.90;226.50;231333.00;;;;4973274;28;20217;-73
2022/09/06 07:12:53;;;;;;;0.00;0.00;;;18.40;99.90;226.50;231333.00;;;;4972947;28;20224;-74
2022/09/06 07:15:23;;;;;;;0.00;0.00;;;18.60;99.90;226.50;231333.00;;;;4973207;28;20264;-74
2022/09/06 07:17:54;;;;;;;0.00;0.00;;;18.70;99.90;226.50;231333.00;;;;4973449;28;20212;-74
2022/09/06 07:20:26;;;;;;;0.00;0.00;;;18.90;99.90;226.50;231333.00;;;;4972506;28;20696;-74
2022/09/06 07:23:05;;;;;;;0.00;0.00;;;18.90;99.90;226.50;231333.00;;;;4965102;28;20233;-74
2022/09/06 07:25:55;;;;;;;0.00;0.00;;;19.10;99.90;226.50;231333.00;;;;4963740;29;20232;-74
2022/09/06 07:28:25;;;;;;;0.00;0.00;;;19.20;99.90;226.50;231333.00;;;;4956713;28;20198;-74
2022/09/06 07:30:57;;;;;;;0.00;0.00;;;19.30;99.90;226.50;231333.00;;;;4953689;28;20209;-74
2022/09/06 07:33:27;;;;;;;0.00;0.00;;;19.40;99.90;226.50;231333.00;;;;4952456;29;20239;-74
2022/09/06 07:36:02;;;;;;;0.00;0.00;;;19.50;99.90;226.50;231333.00;;;;4953509;29;20214;-75
2022/09/06 07:38:34;;;;;;;0.00;0.00;;;19.60;99.90;226.50;231333.00;;;;4953247;28;20581;-75
2022/09/06 07:41:06;;;;;;;0.00;0.00;;;19.80;99.90;226.50;231333.00;;;;4953822;28;20198;-74
2022/09/06 07:43:37;;;;;;;0.00;0.00;;;19.90;99.90;226.50;231333.00;;;;4954056;28;20229;-75
2022/09/06 07:46:09;;;;;;;0.00;0.00;;;20.00;99.90;226.50;231333.00;;;;4953187;29;20201;-74
2022/09/06 07:48:44;;;;;;;0.00;0.00;;;20.00;99.90;226.50;231333.00;;;;4953586;28;20221;-75
2022/09/06 07:51:17;;;;;;;0.00;0.00;;;20.10;99.90;226.50;231333.00;;;;4953449;28;20204;-74
2022/09/06 07:53:52;;;;;;;0.00;0.00;;;20.20;99.90;226.50;231333.00;;;;4953803;28;20230;-75
2022/09/06 07:56:42;;;;;;;0.00;0.00;;;20.30;99.90;226.50;231333.00;;;;4953772;28;20245;-74
2022/09/06 07:59:12;;;;;;;0.00;0.00;;;20.40;99.90;226.50;231333.00;;;;4953473;28;20572;-74
2022/09/06 08:01:43;;;;;;;0.00;0.00;;;20.40;99.90;226.50;231333.00;;;;4953981;28;20204;-74
2022/09/06 08:04:15;;;;;;;0.00;0.00;;;20.50;99.90;226.50;231333.00;;;;4957322;28;20190;-74
2022/09/06 08:06:50;;;;;;;0.00;0.00;;;20.50;99.90;226.50;231333.00;;;;4956829;28;20201;-74
2022/09/06 08:09:41;;;;;;;0.00;0.00;;;20.60;99.90;226.50;231333.00;;;;4957080;28;20296;-74
2022/09/06 08:12:11;;;;;;;0.00;0.00;;;20.60;99.90;226.50;231333.00;;;;4955788;29;20222;-75
2022/09/06 08:14:42;;;;;;;0.00;0.00;;;20.60;99.90;226.50;231333.00;;;;4957160;28;20205;-75
2022/09/06 08:17:12;;;;;;;0.00;0.00;;;20.60;99.90;226.50;231333.00;;;;4957323;28;20202;-75
2022/09/06 08:19:42;;;;;;;0.00;0.00;;;20.60;99.90;226.50;231333.00;;;;4956428;28;20214;-74
2022/09/06 08:22:13;;;;;;;0.00;0.00;;;20.70;99.90;226.50;231333.00;;;;4955990;29;20208;-74
2022/09/06 08:24:44;;;;;;;0.00;0.00;;;20.90;99.90;226.50;231333.00;;;;4957042;28;20510;-74
2022/09/06 08:27:14;;;;;;;0.00;0.00;;;20.90;99.90;226.50;231333.00;;;;4958397;28;20194;-74
2022/09/06 08:29:44;;;;;;;0.00;0.00;;;21.10;99.90;226.50;231333.00;;;;4964929;28;20224;-74
2022/09/06 08:32:15;;;;;;;0.00;0.00;;;21.20;99.90;226.50;231333.00;;;;4969716;28;20225;-75
2022/09/06 08:34:45;;;;;;;0.00;0.00;;;21.40;99.90;226.50;231333.00;;;;4967890;28;20206;-74
2022/09/06 08:37:17;;;;;;;0.00;0.00;;;21.60;99.90;226.50;231333.00;;;;4962147;28;20542;-76
2022/09/06 08:39:53;;;;;;;0.00;0.00;;;21.80;99.90;226.50;231333.00;;;;4956263;28;20247;-74
2022/09/06 08:42:24;;;;;;;0.00;0.00;;;21.80;99.90;226.50;231333.00;;;;4956295;28;20198;-75
2022/09/06 08:44:57;;;;;;;0.00;0.00;;;21.80;99.90;226.50;231333.00;;;;4956503;28;20201;-75
2022/09/06 08:47:28;;;;;;;0.00;0.00;;;21.70;99.90;226.50;231333.00;;;;4956331;28;20539;-75
2022/09/06 08:50:06;;;;;;;0.00;0.00;;;21.70;99.90;226.50;231333.00;;;;4954990;28;20233;-75
2022/09/06 08:53:02;;;;;;;0.00;0.00;;;21.80;99.90;226.50;231333.00;;;;4956439;28;20831;-74
2022/09/06 08:55:53;;;;;;;0.00;0.00;;;21.80;99.90;226.50;231333.00;;;;4954837;29;20696;-76
2022/09/06 08:58:40;;;;;;;0.00;0.00;;;21.90;99.90;226.50;231333.00;;;;4956210;28;20208;-75
2022/09/06 09:01:18;;;;;;;0.00;0.00;;;21.90;99.90;226.50;231333.00;;;;4956481;29;20193;-76
2022/09/06 09:03:49;;;;;;;0.00;0.00;;;21.90;99.90;226.50;231333.00;;;;4956834;28;20313;-74
2022/09/06 09:06:19;;;;;;;0.00;0.00;;;21.90;99.90;226.50;231333.00;;;;4956429;28;20190;-75
2022/09/06 09:09:03;;;;;;;0.00;0.00;;;22.00;99.90;226.50;231333.00;;;;4955808;28;20300;-75
2022/09/06 09:11:36;;;;;;;0.00;0.00;;;22.00;99.90;226.50;231333.00;;;;4967425;28;20671;-75
2022/09/06 09:14:16;;;;;;;0.00;0.00;;;22.10;99.90;226.50;231333.00;;;;4977927;28;20220;-74
2022/09/06 09:16:49;;;;;;;0.00;0.00;;;22.00;99.90;226.50;231333.00;;;;4956297;29;20197;-75
2022/09/06 09:19:19;;;;;;;0.00;0.00;;;22.20;99.90;226.50;231333.00;;;;4955830;28;20213;-76
2022/09/06 09:21:50;;;;;;;0.00;0.00;;;22.20;99.90;226.50;231333.00;;;;4956168;29;20205;-75
2022/09/06 09:24:23;;;;;;;0.00;0.00;;;22.30;99.90;226.50;231333.00;;;;4956314;29;20205;-74
2022/09/06 09:26:59;;;;;;;0.00;0.00;;;22.40;99.90;226.50;231333.00;;;;4956076;29;20205;-75
2022/09/06 09:29:29;;;;;;;0.00;0.00;;;22.40;99.90;226.50;231333.00;;;;4955792;28;20724;-74
2022/09/06 09:32:05;;;;;;;0.00;0.00;;;22.40;99.90;226.50;231333.00;;;;4955171;28;20194;-75
2022/09/06 09:34:39;;;;;;;0.00;0.00;;;22.50;99.90;226.50;231333.00;;;;4955419;29;20225;-74
2022/09/06 09:37:17;;;;;;;0.00;0.00;;;22.70;99.90;226.50;231333.00;;;;4955862;28;20194;-74
2022/09/06 09:40:17;;;;;;;0.00;0.00;;;22.70;99.90;226.50;231333.00;;;;4955220;28;20225;-74
2022/09/06 09:42:48;;;;;;;0.00;0.00;;;22.80;99.90;226.50;231333.00;;;;4955660;29;20696;-75
2022/09/06 09:45:28;;;;;;;0.00;0.00;;;22.90;99.90;226.50;231333.00;;;;4955577;28;20198;-75
2022/09/06 09:48:15;;;;;;;0.00;0.00;;;23.10;99.90;226.50;231333.00;;;;4955045;29;20194;-75
2022/09/06 09:50:45;;;;;;;0.00;0.00;;;23.20;99.90;226.50;231333.00;;;;4955152;28;20204;-74
2022/09/06 09:53:19;;;;;;;0.00;0.00;;;23.20;99.90;226.50;231333.00;;;;4955059;28;20220;-74
2022/09/06 09:55:57;;;;;;;0.00;0.00;;;23.20;99.90;226.50;231333.00;;;;4955053;29;20202;-74
2022/09/06 09:58:35;;;;;;;0.00;0.00;;;23.10;99.90;226.50;231333.00;;;;4954681;28;20198;-74
2022/09/06 10:01:17;;;;;;;0.00;0.00;;;23.00;99.90;226.50;231333.00;;;;4955083;28;20186;-74
2022/09/06 10:03:48;;;;;;;0.00;0.00;;;22.90;99.90;226.50;231333.00;;;;4955581;28;20209;-74
2022/09/06 10:06:38;;;;;;;0.00;0.00;;;22.90;99.90;226.50;231333.00;;;;4953260;28;20221;-74
2022/09/06 10:09:36;;;;;;;0.00;0.00;;;22.80;99.90;226.50;231333.00;;;;4971764;28;20233;-74
2022/09/06 10:12:13;;;;;;;0.00;0.00;;;22.80;99.90;226.50;231333.00;;;;4973272;28;20197;-74
2022/09/06 10:14:47;;;;;;;0.00;0.00;;;22.70;99.90;226.50;231333.00;;;;4974139;28;20609;-75
2022/09/06 10:17:29;;;;;;;0.00;0.00;;;22.60;99.90;226.50;231333.00;;;;4973714;28;20582;-78
2022/09/06 10:20:07;;;;;;;0.00;0.00;;;22.50;99.90;226.50;231333.00;;;;4973974;28;20641;-75
2022/09/06 10:22:51;;;;;;;0.00;0.00;;;22.50;99.90;226.50;231333.00;;;;4973888;28;20204;-74
2022/09/06 10:25:46;;;;;;;0.00;0.00;;;22.50;99.90;226.50;231333.00;;;;4973377;28;20197;-77
2022/09/06 10:28:40;;;;;;;0.00;0.00;;;22.50;99.90;226.50;231333.00;;;;4973834;28;20280;-75
2022/09/06 10:31:40;;;;;;;0.00;0.00;;;22.60;99.90;226.50;231333.00;;;;4972711;28;20207;-74
2022/09/06 10:34:53;;;;;;;0.00;0.00;;;22.60;99.90;226.50;231333.00;;;;4967736;28;20724;-74
2022/09/06 10:37:43;;;;;;;0.00;0.00;;;22.60;99.90;226.50;231333.00;;;;4973632;28;20193;-76
2022/09/06 10:40:27;;;;;;;0.00;0.00;;;22.60;99.90;226.50;231333.00;;;;4973801;28;20263;-76
2022/09/06 10:43:03;;;;;;;0.00;0.00;;;22.60;99.90;226.50;231333.00;;;;4973823;28;20209;-73
2022/09/06 10:45:53;;;;;;;0.00;0.00;;;22.50;99.90;226.50;231333.00;;;;4974313;28;20188;-74
2022/09/06 10:48:30;;;;;;;0.00;0.00;;;22.50;99.90;226.50;231333.00;;;;4973037;28;20197;-76
2022/09/06 10:51:11;;;;;;;0.00;0.00;;;22.40;99.90;226.50;231333.00;;;;4973463;28;20189;-77
2022/09/06 10:53:51;;;;;;;0.00;0.00;;;22.30;99.90;226.50;231333.00;;;;4973532;28;20217;-76
2022/09/06 10:56:35;;;;;;;0.00;0.00;;;22.20;99.90;226.50;231333.00;;;;4973910;28;20192;-76
2022/09/06 10:59:12;;;;;;;0.00;0.00;;;22.00;99.90;226.50;231333.00;;;;4973225;28;20223;-76
2022/09/06 11:02:25;;;;;;;0.00;0.00;;;21.90;99.90;226.50;231333.00;;;;4973532;28;20215;-75
2022/09/06 11:05:05;;;;;;;0.00;0.00;;;21.90;99.90;226.50;231333.00;;;;4972489;28;20212;-76
2022/09/06 11:08:04;;;;;;;0.00;0.00;;;21.60;99.90;226.50;231333.00;;;;4973034;28;20204;-76
2022/09/06 11:10:56;;;;;;;0.00;0.00;;;21.50;99.90;226.50;231333.00;;;;4973328;28;20209;-76
2022/09/06 11:13:29;;;;;;;0.00;0.00;;;21.40;99.90;226.50;231333.00;;;;4972716;28;20196;-77
2022/09/06 11:16:08;;;;;;;0.00;0.00;;;21.40;99.90;226.50;231333.00;;;;4973261;28;20194;-76